createdAt,value
2018-09-15T00:02:13.291Z,101472.66
2018-09-15T00:04:42.571Z,101470.52
2018-09-15T00:07:12.107Z,101464.28
2018-09-15T00:09:41.579Z,101476.72
2018-09-15T00:12:11.563Z,101477.20
2018-09-15T00:14:41.238Z,101476.92
2018-09-15T00:17:11.859Z,101466.95
2018-09-15T00:19:41.760Z,101472.71
2018-09-15T00:22:11.179Z,101476.55
2018-09-15T00:24:40.840Z,101479.68
2018-09-15T00:27:10.411Z,101484.83
2018-09-15T00:29:39.877Z,101484.70
2018-09-15T00:32:09.921Z,101486.92
2018-09-15T00:34:39.696Z,101481.86
2018-09-15T00:37:09.417Z,101478.13
2018-09-15T00:39:39.224Z,101475.31
2018-09-15T00:42:08.633Z,101483.34
2018-09-15T00:44:56.341Z,101478.67
2018-09-15T00:47:36.918Z,101482.46
2018-09-15T00:50:06.551Z,101475.20
2018-09-15T00:52:37.771Z,101487.86
2018-09-15T00:55:07.020Z,101487.36
2018-09-15T00:57:48.878Z,101482.25
2018-09-15T01:00:34.765Z,101484.37
2018-09-15T01:03:06.847Z,101484.39
2018-09-15T01:05:37.437Z,101484.28
2018-09-15T01:08:09.380Z,101488.16
2018-09-15T01:10:42.223Z,101488.16
2018-09-15T01:13:21.383Z,101491.63
2018-09-15T01:15:52.679Z,101497.38
2018-09-15T01:18:28.112Z,101485.33
2018-09-15T01:21:00.726Z,101482.73
2018-09-15T01:23:31.214Z,101485.20
2018-09-15T01:26:04.932Z,101488.59
2018-09-15T01:28:36.019Z,101490.23
2018-09-15T01:31:07.857Z,101488.27
2018-09-15T01:33:43.263Z,101497.19
2018-09-15T01:36:14.646Z,101500.57
2018-09-15T01:38:51.530Z,101500.33
2018-09-15T01:41:21.746Z,101505.72
2018-09-15T01:43:52.066Z,101502.47
2018-09-15T01:46:22.928Z,101510.34
2018-09-15T01:49:00.284Z,101512.89
2018-09-15T01:51:30.648Z,101509.56
2018-09-15T01:54:00.907Z,101517.44
2018-09-15T01:56:43.110Z,101516.78
2018-09-15T01:59:19.334Z,101517.81
2018-09-15T02:01:52.807Z,101528.81
2018-09-15T02:04:22.495Z,101524.47
2018-09-15T02:06:51.977Z,101529.67
2018-09-15T02:09:21.236Z,101523.75
2018-09-15T02:11:50.571Z,101528.39
2018-09-15T02:14:20.115Z,101536.06
2018-09-15T02:16:49.620Z,101534.25
2018-09-15T02:19:19.089Z,101533.39
2018-09-15T02:21:48.626Z,101536.95
2018-09-15T02:24:18.918Z,101529.15
2018-09-15T02:26:48.780Z,101531.42
2018-09-15T02:29:18.178Z,101533.18
2018-09-15T02:31:48.091Z,101529.69
2018-09-15T02:34:17.551Z,101536.23
2018-09-15T02:36:47.115Z,101527.77
2018-09-15T02:39:16.607Z,101538.28
2018-09-15T02:41:46.104Z,101531.77
2018-09-15T02:44:15.567Z,101535.98
2018-09-15T02:46:45.279Z,101531.40
2018-09-15T02:49:14.589Z,101535.33
2018-09-15T02:51:44.121Z,101529.81
2018-09-15T02:54:13.802Z,101533.43
2018-09-15T02:56:43.254Z,101541.09
2018-09-15T02:59:12.506Z,101535.97
2018-09-15T03:01:42.095Z,101536.56
2018-09-15T03:04:11.610Z,101538.26
2018-09-15T03:06:41.563Z,101543.86
2018-09-15T03:09:12.510Z,101540.98
2018-09-15T03:11:42.321Z,101545.44
2018-09-15T03:14:11.563Z,101545.66
2018-09-15T03:16:40.986Z,101551.51
2018-09-15T03:19:10.279Z,101555.52
2018-09-15T03:21:39.817Z,101555.44
2018-09-15T03:24:09.298Z,101547.34
2018-09-15T03:26:39.282Z,101551.91
2018-09-15T03:29:08.730Z,101545.96
2018-09-15T03:31:38.308Z,101545.75
2018-09-15T03:34:08.727Z,101548.50
2018-09-15T03:36:38.887Z,101541.84
2018-09-15T03:39:10.516Z,101541.33
2018-09-15T03:41:39.864Z,101537.91
2018-09-15T03:44:09.742Z,101543.45
2018-09-15T03:46:39.164Z,101541.05
2018-09-15T03:49:08.702Z,101539.78
2018-09-15T03:51:38.150Z,101542.67
2018-09-15T03:54:07.822Z,101548.73
2018-09-15T03:56:37.716Z,101550.28
2018-09-15T03:59:07.495Z,101550.13
2018-09-15T04:01:37.015Z,101549.84
2018-09-15T04:04:07.342Z,101553.97
2018-09-15T04:06:37.376Z,101557.39
2018-09-15T04:09:09.841Z,101559.30
2018-09-15T04:11:39.689Z,101556.69
2018-09-15T04:14:09.790Z,101566.71
2018-09-15T04:16:39.421Z,101566.48
2018-09-15T04:19:08.905Z,101566.73
2018-09-15T04:21:38.431Z,101568.30
2018-09-15T04:24:08.115Z,101571.44
2018-09-15T04:26:37.818Z,101567.63
2018-09-15T04:29:07.261Z,101573.14
2018-09-15T04:31:37.458Z,101574.20
2018-09-15T04:34:07.140Z,101577.89
2018-09-15T04:36:37.250Z,101576.41
2018-09-15T04:39:09.836Z,101580.95
2018-09-15T04:41:39.595Z,101574.13
2018-09-15T04:44:09.499Z,101586.75
2018-09-15T04:46:39.575Z,101594.80
2018-09-15T04:49:09.300Z,101592.52
2018-09-15T04:51:39.029Z,101596.81
2018-09-15T04:54:08.791Z,101591.77
2018-09-15T04:56:38.362Z,101594.59
2018-09-15T04:59:07.929Z,101592.63
2018-09-15T05:01:37.392Z,101587.91
2018-09-15T05:04:07.135Z,101595.92
2018-09-15T05:06:37.439Z,101602.07
2018-09-15T05:09:10.463Z,101596.02
2018-09-15T05:11:40.612Z,101604.01
2018-09-15T05:14:10.494Z,101603.28
2018-09-15T05:16:39.963Z,101602.14
2018-09-15T05:19:09.477Z,101603.57
2018-09-15T05:21:38.974Z,101601.73
2018-09-15T05:24:08.501Z,101608.55
2018-09-15T05:26:37.981Z,101608.10
2018-09-15T05:29:07.874Z,101614.70
2018-09-15T05:31:37.400Z,101618.89
2018-09-15T05:34:07.390Z,101616.23
2018-09-15T05:36:37.039Z,101622.78
2018-09-15T05:39:11.512Z,101623.83
2018-09-15T05:41:41.171Z,101625.84
2018-09-15T05:44:11.035Z,101636.55
2018-09-15T05:46:41.196Z,101631.72
2018-09-15T05:49:10.730Z,101638.19
2018-09-15T05:51:40.552Z,101635.45
2018-09-15T05:54:09.948Z,101640.20
2018-09-15T05:56:39.439Z,101637.28
2018-09-15T05:59:08.957Z,101637.78
2018-09-15T06:01:38.672Z,101631.11
2018-09-15T06:04:08.751Z,101638.62
2018-09-15T06:06:38.517Z,101634.89
2018-09-15T06:09:10.578Z,101643.45
2018-09-15T06:11:40.893Z,101647.84
2018-09-15T06:14:10.294Z,101641.92
2018-09-15T06:16:39.743Z,101652.97
2018-09-15T06:19:10.210Z,101653.92
2018-09-15T06:21:39.431Z,101652.40
2018-09-15T06:24:09.519Z,101647.24
2018-09-15T06:26:39.273Z,101653.00
2018-09-15T06:29:08.738Z,101657.50
2018-09-15T06:31:38.302Z,101653.94
2018-09-15T06:34:08.269Z,101656.55
2018-09-15T06:36:37.919Z,101653.24
2018-09-15T06:39:09.778Z,101655.27
2018-09-15T06:41:39.797Z,101665.26
2018-09-15T06:44:09.455Z,101664.34
2018-09-15T06:46:38.970Z,101663.20
2018-09-15T06:49:08.491Z,101665.47
2018-09-15T06:51:37.734Z,101664.56
2018-09-15T06:54:07.837Z,101673.16
2018-09-15T06:56:37.380Z,101675.85
2018-09-15T06:59:07.278Z,101670.72
2018-09-15T07:01:41.081Z,101677.53
2018-09-15T07:04:12.485Z,101684.87
2018-09-15T07:06:42.431Z,101691.20
2018-09-15T07:09:13.295Z,101698.06
2018-09-15T07:11:43.210Z,101695.31
2018-09-15T07:14:12.727Z,101703.88
2018-09-15T07:16:42.295Z,101702.16
2018-09-15T07:19:12.107Z,101708.34
2018-09-15T07:21:41.963Z,101711.02
2018-09-15T07:24:12.825Z,101712.45
2018-09-15T07:26:42.283Z,101720.94
2018-09-15T07:29:12.840Z,101724.13
2018-09-15T07:31:42.569Z,101721.61
2018-09-15T07:34:12.263Z,101728.67
2018-09-15T07:36:41.954Z,101729.15
2018-09-15T07:39:12.302Z,101724.84
2018-09-15T07:41:42.194Z,101729.67
2018-09-15T07:44:11.721Z,101727.70
2018-09-15T07:46:41.176Z,101732.81
2018-09-15T07:49:10.392Z,101732.95
2018-09-15T07:51:40.268Z,101729.23
2018-09-15T07:54:10.171Z,101732.23
2018-09-15T07:56:40.034Z,101737.14
2018-09-15T07:59:10.813Z,101733.66
2018-09-15T08:01:40.055Z,101730.34
2018-09-15T08:04:09.833Z,101733.30
2018-09-15T08:06:39.863Z,101735.23
2018-09-15T08:09:10.142Z,101729.39
2018-09-15T08:11:40.113Z,101727.23
2018-09-15T08:14:10.622Z,101729.82
2018-09-15T08:16:40.475Z,101729.11
2018-09-15T08:19:11.813Z,101733.30
2018-09-15T08:21:41.818Z,101738.25
2018-09-15T08:24:11.612Z,101736.45
2018-09-15T08:26:41.040Z,101740.79
2018-09-15T08:29:10.982Z,101746.38
2018-09-15T08:31:40.242Z,101747.57
2018-09-15T08:34:10.197Z,101753.00
2018-09-15T08:36:40.415Z,101748.84
2018-09-15T08:39:11.318Z,101745.32
2018-09-15T08:41:41.407Z,101744.84
2018-09-15T08:44:10.863Z,101746.66
2018-09-15T08:46:40.386Z,101749.45
2018-09-15T08:49:11.886Z,101749.73
2018-09-15T08:51:41.472Z,101743.36
2018-09-15T08:54:10.930Z,101749.00
2018-09-15T08:56:40.458Z,101745.91
2018-09-15T08:59:10.401Z,101746.28
2018-09-15T09:01:39.686Z,101746.05
2018-09-15T09:04:09.154Z,101747.33
2018-09-15T09:06:38.725Z,101747.05
2018-09-15T09:09:10.555Z,101745.33
2018-09-15T09:11:40.383Z,101747.77
2018-09-15T09:14:10.126Z,101749.30
2018-09-15T09:16:40.506Z,101753.14
2018-09-15T09:19:10.102Z,101755.57
2018-09-15T09:21:39.352Z,101757.92
2018-09-15T09:24:09.106Z,101761.28
2018-09-15T09:26:38.614Z,101763.28
2018-09-15T09:29:08.894Z,101760.27
2018-09-15T09:31:38.431Z,101761.70
2018-09-15T09:34:07.938Z,101758.77
2018-09-15T09:36:37.402Z,101761.52
2018-09-15T09:39:10.283Z,101764.44
2018-09-15T09:41:39.736Z,101766.14
2018-09-15T09:44:09.868Z,101769.37
2018-09-15T09:46:39.955Z,101771.17
2018-09-15T09:49:09.571Z,101762.57
2018-09-15T09:51:39.131Z,101768.20
2018-09-15T09:54:08.689Z,101764.83
2018-09-15T09:56:38.358Z,101761.17
2018-09-15T09:59:08.218Z,101759.92
2018-09-15T10:01:43.329Z,101764.70
2018-09-15T10:04:13.654Z,101759.95
2018-09-15T10:06:43.192Z,101757.27
2018-09-15T10:09:12.779Z,101764.02
2018-09-15T10:11:42.616Z,101761.20
2018-09-15T10:14:12.150Z,101754.86
2018-09-15T10:16:41.391Z,101760.41
2018-09-15T10:19:10.895Z,101756.38
2018-09-15T10:21:40.905Z,101747.12
2018-09-15T10:24:10.086Z,101743.41
2018-09-15T10:26:39.812Z,101735.86
2018-09-15T10:29:09.387Z,101739.71
2018-09-15T10:31:39.893Z,101728.48
2018-09-15T10:34:09.766Z,101729.73
2018-09-15T10:36:39.666Z,101720.13
2018-09-15T10:39:10.473Z,101720.00
2018-09-15T10:41:39.733Z,101719.94
2018-09-15T10:44:09.399Z,101713.26
2018-09-15T10:46:39.128Z,101720.71
2018-09-15T10:49:09.275Z,101717.81
2018-09-15T10:51:38.960Z,101719.30
2018-09-15T10:54:08.497Z,101723.84
2018-09-15T10:56:37.775Z,101735.10
2018-09-15T10:59:07.329Z,101731.69
2018-09-15T11:01:36.958Z,101729.20
2018-09-15T11:04:06.620Z,101724.39
2018-09-15T11:06:36.829Z,101728.28
2018-09-15T11:09:09.383Z,101728.41
2018-09-15T11:11:39.116Z,101731.14
2018-09-15T11:14:08.406Z,101730.43
2018-09-15T11:16:38.339Z,101722.95
2018-09-15T11:19:08.611Z,101725.22
2018-09-15T11:21:38.202Z,101721.87
2018-09-15T11:24:07.810Z,101719.47
2018-09-15T11:26:37.522Z,101705.74
2018-09-15T11:29:07.485Z,101712.26
2018-09-15T11:31:36.978Z,101714.30
2018-09-15T11:34:06.513Z,101706.88
2018-09-15T11:36:36.010Z,101713.56
2018-09-15T11:39:09.217Z,101714.07
2018-09-15T11:41:39.172Z,101720.95
2018-09-15T11:44:09.089Z,101717.54
2018-09-15T11:46:38.556Z,101712.38
2018-09-15T11:49:08.222Z,101704.55
2018-09-15T11:51:38.207Z,101712.08
2018-09-15T11:54:09.770Z,101717.83
2018-09-15T11:56:39.822Z,101712.72
2018-09-15T11:59:09.338Z,101719.55
2018-09-15T12:01:39.050Z,101723.17
2018-09-15T12:04:08.536Z,101724.58
2018-09-15T12:06:38.062Z,101715.36
2018-09-15T12:09:08.954Z,101711.16
2018-09-15T12:11:38.939Z,101713.41
2018-09-15T12:14:09.312Z,101709.31
2018-09-15T12:16:38.925Z,101710.66
2018-09-15T12:19:08.693Z,101705.13
2018-09-15T12:21:38.613Z,101706.27
2018-09-15T12:24:08.124Z,101713.31
2018-09-15T12:26:37.966Z,101712.86
2018-09-15T12:29:07.491Z,101712.86
2018-09-15T12:31:37.960Z,101712.05
2018-09-15T12:34:07.739Z,101716.36
2018-09-15T12:36:37.215Z,101715.56
2018-09-15T12:39:08.511Z,101710.12
2018-09-15T12:41:38.027Z,101713.26
2018-09-15T12:44:07.823Z,101701.08
2018-09-15T12:46:37.995Z,101698.10
2018-09-15T12:49:08.111Z,101706.28
2018-09-15T12:51:38.266Z,101701.24
2018-09-15T12:54:08.150Z,101693.47
2018-09-15T12:56:37.846Z,101699.02
2018-09-15T12:59:07.894Z,101700.64
2018-09-15T13:01:37.614Z,101702.98
2018-09-15T13:04:07.109Z,101692.58
2018-09-15T13:06:36.612Z,101690.23
2018-09-15T13:09:10.629Z,101698.05
2018-09-15T13:11:40.142Z,101691.22
2018-09-15T13:14:10.207Z,101702.08
2018-09-15T13:16:39.938Z,101701.93
2018-09-15T13:19:10.512Z,101701.89
2018-09-15T13:21:39.879Z,101708.16
2018-09-15T13:24:09.447Z,101702.30
2018-09-15T13:26:39.038Z,101700.94
2018-09-15T13:29:08.689Z,101705.30
2018-09-15T13:31:38.303Z,101699.85
2018-09-15T13:34:08.602Z,101695.98
2018-09-15T13:36:38.312Z,101698.08
2018-09-15T13:39:10.463Z,101691.27
2018-09-15T13:41:39.979Z,101697.84
2018-09-15T13:44:09.811Z,101686.86
2018-09-15T13:46:39.413Z,101681.73
2018-09-15T13:49:09.423Z,101676.88
2018-09-15T13:51:39.170Z,101688.14
2018-09-15T13:54:09.050Z,101689.22
2018-09-15T13:56:38.810Z,101692.48
2018-09-15T13:59:08.885Z,101688.88
2018-09-15T14:01:38.398Z,101683.09
2018-09-15T14:04:08.318Z,101681.80
2018-09-15T14:06:37.988Z,101677.20
2018-09-15T14:09:10.493Z,101681.42
2018-09-15T14:11:40.351Z,101679.20
2018-09-15T14:14:10.088Z,101688.46
2018-09-15T14:16:39.823Z,101695.31
2018-09-15T14:19:09.507Z,101690.39
2018-09-15T14:21:39.135Z,101689.81
2018-09-15T14:24:08.700Z,101696.48
2018-09-15T14:26:38.398Z,101696.41
2018-09-15T14:29:08.351Z,101701.52
2018-09-15T14:31:37.975Z,101698.55
2018-09-15T14:34:07.250Z,101701.13
2018-09-15T14:36:36.818Z,101701.89
2018-09-15T14:39:09.215Z,101702.59
2018-09-15T14:41:39.267Z,101709.62
2018-09-15T14:44:08.847Z,101705.70
2018-09-15T14:46:38.328Z,101702.42
2018-09-15T14:49:07.838Z,101703.77
2018-09-15T14:51:37.495Z,101710.63
2018-09-15T14:54:07.014Z,101714.42
2018-09-15T14:56:36.562Z,101718.80
2018-09-15T14:59:07.127Z,101717.30
2018-09-15T15:01:36.763Z,101710.75
2018-09-15T15:04:07.150Z,101712.08
2018-09-15T15:06:36.821Z,101710.11
2018-09-15T15:09:08.118Z,101712.42
2018-09-15T15:11:37.923Z,101715.02
2018-09-15T15:14:08.290Z,101712.70
2018-09-15T15:16:38.104Z,101713.78
2018-09-15T15:19:08.283Z,101705.17
2018-09-15T15:21:37.591Z,101703.23
2018-09-15T15:24:07.447Z,101702.52
2018-09-15T15:26:38.104Z,101655.85
2018-09-15T15:29:08.215Z,101700.59
2018-09-15T15:31:37.812Z,101700.80
2018-09-15T15:34:07.296Z,101701.98
2018-09-15T15:36:37.592Z,101703.67
2018-09-15T15:39:08.782Z,101703.08
2018-09-15T15:41:38.303Z,101704.25
2018-09-15T15:44:07.955Z,101704.09
2018-09-15T15:46:37.698Z,101702.22
2018-09-15T15:49:07.607Z,101704.05
2018-09-15T15:51:37.487Z,101706.35
2018-09-15T15:54:06.795Z,101696.33
2018-09-15T15:56:36.703Z,101704.86
2018-09-15T15:59:06.257Z,101709.23
2018-09-15T16:01:36.355Z,101706.52
2018-09-15T16:04:06.554Z,101706.66
2018-09-15T16:06:36.367Z,101710.23
2018-09-15T16:09:08.229Z,101712.50
2018-09-15T16:11:38.599Z,101705.27
2018-09-15T16:14:08.642Z,101705.73
2018-09-15T16:16:38.076Z,101712.05
2018-09-15T16:19:07.620Z,101706.98
2018-09-15T16:21:37.018Z,101705.84
2018-09-15T16:24:07.906Z,101703.77
2018-09-15T16:26:38.282Z,101712.00
2018-09-15T16:29:08.139Z,101704.55
2018-09-15T16:31:37.647Z,101706.62
2018-09-15T16:34:07.690Z,101700.38
2018-09-15T16:36:37.947Z,101700.17
2018-09-15T16:39:10.854Z,101700.70
2018-09-15T16:41:41.118Z,101702.02
2018-09-15T16:44:10.680Z,101698.98
2018-09-15T16:46:40.736Z,101702.09
2018-09-15T16:49:10.885Z,101701.77
2018-09-15T16:51:40.343Z,101705.97
2018-09-15T16:54:10.012Z,101702.95
2018-09-15T16:56:39.719Z,101706.03
2018-09-15T16:59:08.954Z,101709.98
2018-09-15T17:01:38.840Z,101703.95
2018-09-15T17:04:08.574Z,101713.52
2018-09-15T17:06:38.243Z,101712.36
2018-09-15T17:09:10.319Z,101713.19
2018-09-15T17:11:39.903Z,101707.47
2018-09-15T17:14:09.438Z,101696.38
2018-09-15T17:16:40.113Z,101708.64
2018-09-15T17:19:09.643Z,101707.14
2018-09-15T17:21:39.151Z,101714.05
2018-09-15T17:24:09.368Z,101711.32
2018-09-15T17:26:39.854Z,101713.52
2018-09-15T17:29:09.478Z,101713.83
2018-09-15T17:31:39.274Z,101721.23
2018-09-15T17:34:08.726Z,101717.30
2018-09-15T17:36:40.010Z,101723.95
2018-09-15T17:39:11.376Z,101722.44
2018-09-15T17:41:41.127Z,101722.72
2018-09-15T17:44:11.026Z,101729.22
2018-09-15T17:46:41.146Z,101728.97
2018-09-15T17:49:10.645Z,101731.42
2018-09-15T17:51:40.568Z,101727.84
2018-09-15T17:54:10.063Z,101732.31
2018-09-15T17:56:40.017Z,101736.03
2018-09-15T17:59:09.666Z,101733.45
2018-09-15T18:01:39.635Z,101732.17
2018-09-15T18:04:08.879Z,101740.39
2018-09-15T18:06:38.316Z,101740.98
2018-09-15T18:09:08.451Z,101741.80
2018-09-15T18:11:37.702Z,101750.44
2018-09-15T18:14:07.199Z,101757.34
2018-09-15T18:16:36.742Z,101756.69
2018-09-15T18:19:06.143Z,101756.60
2018-09-15T18:21:35.829Z,101752.66
2018-09-15T18:24:05.578Z,101751.27
2018-09-15T18:26:34.882Z,101754.77
2018-09-15T18:29:04.758Z,101752.00
2018-09-15T18:31:35.123Z,101762.31
2018-09-15T18:34:04.612Z,101764.67
2018-09-15T18:36:34.215Z,101768.48
2018-09-15T18:39:04.236Z,101776.23
2018-09-15T18:41:33.809Z,101775.75
2018-09-15T18:44:03.298Z,101780.02
2018-09-15T18:46:32.925Z,101780.50
2018-09-15T18:49:02.795Z,101781.32
2018-09-15T18:51:32.013Z,101785.06
2018-09-15T18:54:01.629Z,101771.18
2018-09-15T18:56:31.227Z,101782.31
2018-09-15T18:59:00.745Z,101786.20
2018-09-15T19:01:30.694Z,101792.95
2018-09-15T19:03:59.943Z,101790.45
2018-09-15T19:06:30.422Z,101795.66
2018-09-15T19:09:00.175Z,101806.27
2018-09-15T19:11:30.017Z,101808.38
2018-09-15T19:14:00.316Z,101807.16
2018-09-15T19:16:29.749Z,101807.55
2018-09-15T19:18:59.195Z,101809.45
2018-09-15T19:21:28.923Z,101806.22
2018-09-15T19:23:58.783Z,101811.22
2018-09-15T19:26:28.608Z,101806.61
2018-09-15T19:28:58.332Z,101810.19
2018-09-15T19:31:27.771Z,101804.84
2018-09-15T19:33:58.247Z,101806.41
2018-09-15T19:36:27.823Z,101810.67
2018-09-15T19:38:57.321Z,101806.65
2018-09-15T19:41:27.098Z,101808.41
2018-09-15T19:43:56.715Z,101809.84
2018-09-15T19:46:26.415Z,101813.91
2018-09-15T19:48:55.943Z,101819.84
2018-09-15T19:51:25.680Z,101817.66
2018-09-15T19:53:55.554Z,101821.74
2018-09-15T19:56:25.034Z,101819.84
2018-09-15T19:58:54.536Z,101820.91
2018-09-15T20:01:24.198Z,101818.80
2018-09-15T20:03:53.787Z,101811.27
2018-09-15T20:06:23.078Z,101823.50
2018-09-15T20:08:52.708Z,101825.18
2018-09-15T20:11:23.533Z,101819.92
2018-09-15T20:13:53.247Z,101824.49
2018-09-15T20:16:21.481Z,101819.49
2018-09-15T20:18:50.467Z,101822.99
2018-09-15T20:21:18.583Z,101830.45
2018-09-15T20:23:48.402Z,101825.81
2018-09-15T20:26:17.903Z,101826.81
2018-09-15T20:28:47.396Z,101822.08
2018-09-15T20:31:17.553Z,101828.56
2018-09-15T20:33:47.374Z,101834.55
2018-09-15T20:36:16.950Z,101834.00
2018-09-15T20:38:46.423Z,101832.10
2018-09-15T20:41:16.112Z,101831.62
2018-09-15T20:43:46.470Z,101834.90
2018-09-15T20:46:16.360Z,101835.31
2018-09-15T20:48:46.687Z,101833.59
2018-09-15T20:51:16.154Z,101840.88
2018-09-15T20:53:46.331Z,101836.67
2018-09-15T20:56:15.797Z,101841.13
2018-09-15T20:58:45.763Z,101840.39
2018-09-15T21:01:15.286Z,101847.28
2018-09-15T21:03:45.164Z,101846.72
2018-09-15T21:06:15.213Z,101844.55
2018-09-15T21:08:44.995Z,101842.52
2018-09-15T21:11:14.719Z,101841.16
2018-09-15T21:13:44.227Z,101841.25
2018-09-15T21:16:13.730Z,101846.43
2018-09-15T21:18:43.494Z,101848.49
2018-09-15T21:21:12.782Z,101853.31
2018-09-15T21:23:42.503Z,101850.03
2018-09-15T21:26:11.961Z,101851.30
2018-09-15T21:28:41.436Z,101848.86
2018-09-15T21:31:10.910Z,101845.12
2018-09-15T21:33:40.927Z,101851.52
2018-09-15T21:36:10.774Z,101851.70
2018-09-15T21:38:40.279Z,101850.53
2018-09-15T21:41:09.637Z,101850.17
2018-09-15T21:43:39.080Z,101845.95
2018-09-15T21:46:08.603Z,101849.09
2018-09-15T21:48:38.104Z,101856.03
2018-09-15T21:51:07.515Z,101852.73
2018-09-15T21:53:37.293Z,101855.33
2018-09-15T21:56:07.226Z,101854.16
2018-09-15T21:58:36.905Z,101856.06
2018-09-15T22:01:07.087Z,101847.63
2018-09-15T22:03:42.214Z,101850.20
2018-09-15T22:06:12.431Z,101851.48
2018-09-15T22:08:41.701Z,101862.64
2018-09-15T22:11:11.225Z,101858.22
2018-09-15T22:13:40.739Z,101864.44
2018-09-15T22:16:10.242Z,101864.20
2018-09-15T22:18:39.910Z,101859.62
2018-09-15T22:21:09.721Z,101859.88
2018-09-15T22:23:39.123Z,101865.14
2018-09-15T22:26:08.719Z,101863.95
2018-09-15T22:28:38.591Z,101867.19
2018-09-15T22:31:07.866Z,101860.44
2018-09-15T22:33:37.354Z,101863.36
2018-09-15T22:36:07.028Z,101865.77
2018-09-15T22:38:36.567Z,101862.01
2018-09-15T22:41:06.521Z,101862.98
2018-09-15T22:43:36.522Z,101872.73
2018-09-15T22:46:06.784Z,101862.73
2018-09-15T22:48:36.697Z,101863.00
2018-09-15T22:51:07.447Z,101864.34
2018-09-15T22:53:36.874Z,101854.92
2018-09-15T22:56:06.804Z,101859.16
2018-09-15T22:58:36.521Z,101855.40
2018-09-15T23:01:06.607Z,101856.11
2018-09-15T23:03:36.107Z,101854.52
2018-09-15T23:06:06.126Z,101852.14
2018-09-15T23:08:36.409Z,101851.52
2018-09-15T23:11:06.772Z,101850.70
2018-09-15T23:13:36.747Z,101849.97
2018-09-15T23:16:06.546Z,101852.73
2018-09-15T23:18:36.247Z,101852.84
2018-09-15T23:21:06.286Z,101852.87
2018-09-15T23:23:35.701Z,101853.70
2018-09-15T23:26:05.318Z,101848.63
2018-09-15T23:28:35.291Z,101842.59
2018-09-15T23:31:05.399Z,101845.75
2018-09-15T23:33:34.926Z,101847.19
2018-09-15T23:36:04.430Z,101849.12
2018-09-15T23:38:33.911Z,101844.63
2018-09-15T23:41:03.620Z,101841.14
2018-09-15T23:43:33.191Z,101836.30
2018-09-15T23:46:03.029Z,101831.84
2018-09-15T23:48:32.570Z,101831.11
2018-09-15T23:51:02.050Z,101833.27
2018-09-15T23:53:31.596Z,101838.70
2018-09-15T23:56:01.017Z,101834.47
2018-09-15T23:58:30.578Z,101831.32
